Vega Nikolas — A8QD2 — position and weather

sailwx.info

Track history (hours):
 
Tides and Currents Weather Stations Pressure Air Temp Water Temp Dewpoint Dewpoint Depression Visibility Wind Speed Wind Dir Waves Ship Positions

Vega Nikolas

Last reported at 2015-Feb-12 14:05 UTC. Time now 2015-Mar-28 12:23 UTC.
Position N 40°32' W 074°01'.
Warning: this ship's position is 43 days out of date.

Length 139 m; draft 8 m.

Type: Ship (hazmat cat A). MMSI: 636091613.

Date/timePositionNaut miles runAvg speedWind from/ knotsBaromVisibWave heightAir tempDewpointWater temp
2015-Feb-12 14:05N 40°32' W 074°01'815.2
2015-Feb-12 13:33N 40°40' W 074°03'2 1.7
2015-Feb-12 12:29N 40°41' W 074°01'0 0.0
2015-Feb-12 11:29N 40°41' W 074°01'0 0.0
2015-Feb-12 10:29N 40°41' W 074°01'0 0.0
2015-Feb-12 09:29N 40°41' W 074°01'0 0.0
2015-Feb-12 08:29N 40°41' W 074°01'0 0.0
2015-Feb-12 07:29N 40°41' W 074°01'0 0.0
2015-Feb-12 06:30N 40°41' W 074°01'0 0.0
2015-Feb-12 05:30N 40°41' W 074°01'0 0.0
2015-Feb-12 04:30N 40°41' W 074°01'0 0.0
2015-Feb-12 03:30N 40°41' W 074°01'0 0.0
2015-Feb-12 02:31N 40°41' W 074°01'0 0.0
2015-Feb-12 01:30N 40°41' W 074°01'0 0.0
2015-Feb-12 00:30N 40°41' W 074°01'0 0.0
2015-Feb-11 23:30N 40°41' W 074°01'0 0.0
2015-Feb-11 22:30N 40°41' W 074°01'0 0.0
2015-Feb-11 21:30N 40°41' W 074°01'0 0.0
2015-Feb-11 20:30N 40°41' W 074°01'0 0.0
2015-Feb-11 19:30N 40°41' W 074°01'4 4.1
2015-Feb-11 18:33N 40°38' W 074°03'1211.6
2015-Feb-11 17:30N 40°28' W 073°53'7 6.6
2015-Feb-11 16:30N 40°23' W 073°47'8 7.5
2015-Feb-11 15:30N 40°16' W 073°46'5710.6
2015-Feb-11 10:07N 39°19' W 073°54'  
Track history (hours):
 
Tides and Currents Weather Stations Pressure Air Temp Water Temp Dewpoint Dewpoint Depression Visibility Wind Speed Wind Dir Waves Ship Positions

Vega Nikolas

Last reported at 2015-Feb-12 14:05 UTC. Time now 2015-Mar-28 12:23 UTC.
Position N 40°32' W 074°01'.
Warning: this ship's position is 43 days out of date.

Length 139 m; draft 8 m.

Type: Ship (hazmat cat A). MMSI: 636091613.

Date/timePositionNaut miles runAvg speedWind from/ knotsBaromVisibWave heightAir tempDewpointWater temp
2015-Feb-12 14:05N 40°32' W 074°01'815.2
2015-Feb-12 13:33N 40°40' W 074°03'2 1.7
2015-Feb-12 12:29N 40°41' W 074°01'0 0.0
2015-Feb-12 11:29N 40°41' W 074°01'0 0.0
2015-Feb-12 10:29N 40°41' W 074°01'0 0.0
2015-Feb-12 09:29N 40°41' W 074°01'0 0.0
2015-Feb-12 08:29N 40°41' W 074°01'0 0.0
2015-Feb-12 07:29N 40°41' W 074°01'0 0.0
2015-Feb-12 06:30N 40°41' W 074°01'0 0.0
2015-Feb-12 05:30N 40°41' W 074°01'0 0.0
2015-Feb-12 04:30N 40°41' W 074°01'0 0.0
2015-Feb-12 03:30N 40°41' W 074°01'0 0.0
2015-Feb-12 02:31N 40°41' W 074°01'0 0.0
2015-Feb-12 01:30N 40°41' W 074°01'0 0.0
2015-Feb-12 00:30N 40°41' W 074°01'0 0.0
2015-Feb-11 23:30N 40°41' W 074°01'0 0.0
2015-Feb-11 22:30N 40°41' W 074°01'0 0.0
2015-Feb-11 21:30N 40°41' W 074°01'0 0.0
2015-Feb-11 20:30N 40°41' W 074°01'0 0.0
2015-Feb-11 19:30N 40°41' W 074°01'4 4.1
2015-Feb-11 18:33N 40°38' W 074°03'1211.6
2015-Feb-11 17:30N 40°28' W 073°53'7 6.6
2015-Feb-11 16:30N 40°23' W 073°47'8 7.5
2015-Feb-11 15:30N 40°16' W 073°46'5710.6
2015-Feb-11 10:07N 39°19' W 073°54'  

Dump ship's entire track history